Bookmark and Share
Track history (hours):
 

Makin Way

Last reported at 2013-Sep-23 17:06 UTC. Time now 2014-Apr-21 12:18 UTC.
Position N 34°43' W 076°46'.
Warning: this ship's position is months out of date.

Length 22 m.

Type: Pleasure craft. MMSI: 338133584.

NotesDate/timePositionNaut miles runAvg speedWind from/ knotsBaromVisibWave heightAir tempDewpointWater temp
2013-Sep-23 17:06N 34°43' W 076°46'4 7.5
2013-Sep-23 16:32N 34°42' W 076°41'1 1.1
2013-Sep-23 15:32N 34°43' W 076°40'0 0.0
2013-Sep-23 14:32N 34°43' W 076°40'0 0.0
2013-Sep-23 13:32N 34°43' W 076°40'0 0.0
2013-Sep-23 12:26N 34°43' W 076°40'0 0.0
2013-Sep-23 11:32N 34°43' W 076°40'0 0.0
2013-Sep-23 10:32N 34°43' W 076°40'0 0.0
2013-Sep-23 09:23N 34°43' W 076°40'0 0.0
2013-Sep-23 08:29N 34°43' W 076°40'0 0.0
2013-Sep-23 07:32N 34°43' W 076°40'0 0.0
2013-Sep-23 06:31N 34°43' W 076°40'0 0.0
2013-Sep-23 05:31N 34°43' W 076°40'0 0.0
2013-Sep-23 04:31N 34°43' W 076°40'0 0.0
2013-Sep-23 03:31N 34°43' W 076°40'0 0.0
2013-Sep-23 02:31N 34°43' W 076°40'0 0.0
2013-Sep-23 01:31N 34°43' W 076°40'0 0.0
2013-Sep-23 00:31N 34°43' W 076°40'0 0.0
2013-Sep-22 23:31N 34°43' W 076°40'  
2013-Sep-19 01:33N 40°33' W 072°36'10 8.5
2013-Sep-19 00:24N 40°38' W 072°26'8 8.5
2013-Sep-18 23:30N 40°42' W 072°17'8 8.7
2013-Sep-18 22:33N 40°47' W 072°08'9 8.7
2013-Sep-18 21:33N 40°52' W 071°58'9 8.9
2013-Sep-18 20:33N 40°56' W 071°48'9 9.5
2013-Sep-18 19:33N 41°02' W 071°38'9 9.1
2013-Sep-18 18:31N 41°07' W 071°27'9 8.8
2013-Sep-18 17:33N 41°11' W 071°18'  

Dump ship's entire track history

sailing weather and tide predictions

Makin Way — MAKIN — position and weather